Terminal Aerodrome Forecast
Issued by NWS

Home | Current Version | Previous Version | Text Only | Print | Product List | Glossary On
Versions: 1 2 3 4 5 6 7 8 9 10 11 12 13 14 15 16 17 18
000
FTPA31 PHFO 242100 AAC
TAFLNY
TAF AMD
PHNY 242124Z 2421/2518 06008KT P6SM SCT025
      TEMPO 2422/2501 VRB04KT BKN025
     FM250100 04010KT P6SM SCT030
      TEMPO 2501/2503 VRB04KT BKN020
      AMD NOT SKED=

USA.gov is the U.S. government's official web portal to all federal, state and local government web resources and services.